Time;durP1;ratioP1;P1;durP2;ratioP2;P2;SDS_P1;SDS_P2;PMS_P1;PMS_P2;Temp;Humidity;BMP_temperature;BMP_pressure;BME280_temperature;BME280_humidity;BME280_pressure;Samples;Min_cycle;Max_cycle;Signal;HPM_P1;HPM_P2
2023/08/05 00:00:22;;;;;;;20.73;8.70;;;;;;;;;;5008450;28;20314;-62
2023/08/05 00:02:47;;;;;;;10.68;8.15;;;;;;;;;;5024764;28;20618;-63
2023/08/05 00:05:12;;;;;;;9.60;8.03;;;;;;;;;;5027865;28;20041;-62
2023/08/05 00:07:37;;;;;;;13.87;7.77;;;;;;;;;;5014029;28;20052;-63
2023/08/05 00:10:03;;;;;;;8.10;6.97;;;;;;;;;;5028166;28;20750;-62
2023/08/05 00:12:28;;;;;;;8.23;7.38;;;;;;;;;;5023681;28;20305;-61
2023/08/05 00:14:53;;;;;;;11.53;8.27;;;;;;;;;;5027343;28;20422;-62
2023/08/05 00:17:19;;;;;;;9.37;8.37;;;;;;;;;;5016113;28;20255;-62
2023/08/05 00:19:44;;;;;;;7.63;6.23;;;;;;;;;;5022129;28;20327;-61
2023/08/05 00:22:09;;;;;;;6.90;6.15;;;;;;;;;;5032648;28;20025;-62
2023/08/05 00:24:35;;;;;;;9.27;5.72;;;;;;;;;;5032574;28;20033;-61
2023/08/05 00:27:00;;;;;;;9.15;5.15;;;;;;;;;;5024696;28;20030;-63
2023/08/05 00:29:25;;;;;;;8.25;5.10;;;;;;;;;;5023333;28;20489;-62
2023/08/05 00:31:51;;;;;;;5.93;5.33;;;;;;;;;;5028529;28;20461;-62
2023/08/05 00:34:16;;;;;;;10.23;6.33;;;;;;;;;;5041564;28;20297;-62
2023/08/05 00:36:41;;;;;;;9.77;5.70;;;;;;;;;;5021480;28;20786;-62
2023/08/05 00:39:06;;;;;;;8.87;5.03;;;;;;;;;;5007963;28;20286;-62
2023/08/05 00:41:32;;;;;;;7.87;4.33;;;;;;;;;;5013253;28;20637;-61
2023/08/05 00:43:57;;;;;;;10.83;4.43;;;;;;;;;;5041408;28;20251;-62
2023/08/05 00:46:22;;;;;;;13.53;4.40;;;;;;;;;;5022865;28;20247;-62
2023/08/05 00:48:49;;;;;;;6.13;4.03;;;;;;;;;;5007698;28;20263;-62
2023/08/05 00:51:14;;;;;;;6.85;4.18;;;;;;;;;;5010760;28;20021;-61
2023/08/05 00:53:39;;;;;;;6.07;3.40;;;;;;;;;;5015164;28;20087;-62
2023/08/05 00:56:05;;;;;;;7.13;4.05;;;;;;;;;;5009650;28;20026;-61
2023/08/05 00:58:32;;;;;;;6.83;3.80;;;;;;;;;;5041358;28;20472;-61
2023/08/05 01:00:57;;;;;;;6.53;3.63;;;;;;;;;;5026166;28;20274;-61
2023/08/05 01:03:23;;;;;;;9.32;4.35;;;;;;;;;;5007102;28;20030;-61
2023/08/05 01:05:50;;;;;;;5.70;3.83;;;;;;;;;;5007148;28;20107;-62
2023/08/05 01:08:16;;;;;;;5.53;4.32;;;;;;;;;;5041258;28;20048;-62
2023/08/05 01:10:41;;;;;;;7.50;4.18;;;;;;;;;;5026703;28;20460;-61
2023/08/05 01:13:07;;;;;;;12.98;4.78;;;;;;;;;;5008436;28;20042;-62
2023/08/05 01:15:32;;;;;;;11.07;4.43;;;;;;;;;;5014645;28;20115;-63
2023/08/05 01:17:58;;;;;;;10.03;4.37;;;;;;;;;;5024020;28;20045;-61
2023/08/05 01:20:27;;;;;;;6.22;3.92;;;;;;;;;;5026710;28;20811;-61
2023/08/05 01:22:54;;;;;;;4.57;4.10;;;;;;;;;;5013565;28;20025;-61
2023/08/05 01:25:30;;;;;;;7.28;4.30;;;;;;;;;;5027407;28;20052;-62
2023/08/05 01:27:56;;;;;;;5.35;3.90;;;;;;;;;;5025094;28;20037;-62
2023/08/05 01:30:23;;;;;;;6.53;3.47;;;;;;;;;;5025648;28;20044;-62
2023/08/05 01:32:49;;;;;;;7.03;3.90;;;;;;;;;;5017033;28;20029;-63
2023/08/05 01:35:17;;;;;;;3.97;3.58;;;;;;;;;;5025596;28;20095;-62
2023/08/05 01:37:42;;;;;;;5.63;3.85;;;;;;;;;;5010532;28;20393;-63
2023/08/05 01:40:08;;;;;;;5.53;4.30;;;;;;;;;;5006356;28;20044;-61
2023/08/05 01:42:33;;;;;;;7.18;4.13;;;;;;;;;;5019630;28;20100;-62
2023/08/05 01:44:58;;;;;;;7.13;3.50;;;;;;;;;;5025143;28;20026;-61
2023/08/05 01:47:24;;;;;;;5.33;3.97;;;;;;;;;;5026461;28;20273;-62
2023/08/05 01:49:49;;;;;;;5.57;3.60;;;;;;;;;;5021856;28;20293;-62
2023/08/05 01:52:14;;;;;;;6.97;4.13;;;;;;;;;;5016507;28;20445;-62
2023/08/05 01:54:39;;;;;;;5.17;4.00;;;;;;;;;;5025919;28;20281;-62
2023/08/05 01:57:05;;;;;;;13.27;4.30;;;;;;;;;;5015955;28;20804;-63
2023/08/05 01:59:30;;;;;;;5.30;3.92;;;;;;;;;;5021224;28;20291;-62
2023/08/05 02:01:55;;;;;;;4.60;4.13;;;;;;;;;;5017233;28;20029;-63
2023/08/05 02:04:21;;;;;;;4.00;3.60;;;;;;;;;;5006339;28;20281;-62
2023/08/05 02:06:46;;;;;;;5.30;4.30;;;;;;;;;;5019909;28;20262;-62
2023/08/05 02:09:11;;;;;;;5.37;4.03;;;;;;;;;;5026240;28;20337;-61
2023/08/05 02:11:36;;;;;;;5.77;4.60;;;;;;;;;;5019373;28;20270;-61
2023/08/05 02:14:02;;;;;;;8.60;4.20;;;;;;;;;;5006165;28;20251;-62
2023/08/05 02:16:27;;;;;;;4.82;4.00;;;;;;;;;;5017679;28;20631;-61
2023/08/05 02:18:53;;;;;;;4.93;4.37;;;;;;;;;;5005329;28;20057;-61
2023/08/05 02:21:18;;;;;;;7.70;4.50;;;;;;;;;;5015798;28;20360;-62
2023/08/05 02:23:44;;;;;;;6.30;4.50;;;;;;;;;;5025111;28;20378;-61
2023/08/05 02:26:09;;;;;;;6.65;4.70;;;;;;;;;;5024201;28;20026;-61
2023/08/05 02:28:35;;;;;;;7.10;5.10;;;;;;;;;;5024776;28;20408;-62
2023/08/05 02:31:00;;;;;;;6.18;4.65;;;;;;;;;;5026763;28;20096;-61
2023/08/05 02:33:25;;;;;;;5.37;4.43;;;;;;;;;;5012097;28;20382;-62
2023/08/05 02:35:56;;;;;;;5.35;4.78;;;;;;;;;;5006044;28;20283;-62
2023/08/05 02:38:21;;;;;;;5.78;5.18;;;;;;;;;;5025255;28;20405;-61
2023/08/05 02:40:46;;;;;;;7.30;5.77;;;;;;;;;;5024703;28;20030;-62
2023/08/05 02:43:11;;;;;;;7.17;5.47;;;;;;;;;;5024074;28;20263;-62
2023/08/05 02:45:37;;;;;;;7.13;5.63;;;;;;;;;;5024524;28;20682;-62
2023/08/05 02:48:02;;;;;;;6.70;6.00;;;;;;;;;;5025567;28;20650;-61
2023/08/05 02:50:27;;;;;;;9.02;6.32;;;;;;;;;;5025827;28;20627;-63
2023/08/05 02:52:53;;;;;;;7.82;6.30;;;;;;;;;;5009070;28;20034;-61
2023/08/05 02:55:18;;;;;;;9.13;7.00;;;;;;;;;;5005375;28;20109;-61
2023/08/05 02:57:43;;;;;;;8.20;6.18;;;;;;;;;;5006782;28;20022;-62
2023/08/05 03:00:09;;;;;;;7.03;6.33;;;;;;;;;;5005368;28;20048;-62
2023/08/05 03:02:34;;;;;;;6.93;6.18;;;;;;;;;;5006628;28;20264;-62
2023/08/05 03:05:00;;;;;;;8.75;5.97;;;;;;;;;;5010764;28;20037;-62
2023/08/05 03:07:25;;;;;;;8.63;6.47;;;;;;;;;;5012494;28;20457;-61
2023/08/05 03:09:50;;;;;;;9.45;6.30;;;;;;;;;;5013768;28;20300;-63
2023/08/05 03:12:15;;;;;;;9.27;7.20;;;;;;;;;;5014270;28;20082;-62
2023/08/05 03:14:41;;;;;;;8.10;6.67;;;;;;;;;;5005867;28;20320;-62
2023/08/05 03:17:06;;;;;;;9.73;6.70;;;;;;;;;;5006208;28;20337;-58
2023/08/05 03:19:31;;;;;;;9.07;6.27;;;;;;;;;;5008696;28;20439;-62
2023/08/05 03:21:56;;;;;;;9.27;6.47;;;;;;;;;;5009984;28;20274;-62
2023/08/05 03:24:22;;;;;;;6.73;5.90;;;;;;;;;;5035119;28;20032;-62
2023/08/05 03:26:47;;;;;;;10.37;6.37;;;;;;;;;;5048334;28;20765;-61
2023/08/05 03:29:12;;;;;;;7.63;6.83;;;;;;;;;;5043468;28;20354;-62
2023/08/05 03:31:37;;;;;;;7.80;6.87;;;;;;;;;;5028118;28;20772;-62
2023/08/05 03:34:03;;;;;;;11.17;6.40;;;;;;;;;;5029038;28;20258;-61
2023/08/05 03:36:28;;;;;;;7.97;7.10;;;;;;;;;;5028873;28;20661;-62
2023/08/05 03:38:54;;;;;;;8.93;7.30;;;;;;;;;;5027996;28;20105;-62
2023/08/05 03:41:19;;;;;;;10.10;8.25;;;;;;;;;;5028131;28;20637;-63
2023/08/05 03:43:45;;;;;;;7.88;7.07;;;;;;;;;;5028328;28;20477;-62
2023/08/05 03:46:10;;;;;;;10.75;8.63;;;;;;;;;;5028407;28;20492;-62
2023/08/05 03:48:37;;;;;;;11.83;8.60;;;;;;;;;;5013943;28;20026;-63
2023/08/05 03:51:02;;;;;;;14.30;8.95;;;;;;;;;;5009045;28;20256;-61
2023/08/05 03:53:27;;;;;;;12.70;9.50;;;;;;;;;;5008706;28;20418;-61
2023/08/05 03:55:53;;;;;;;12.20;9.23;;;;;;;;;;5008677;28;20492;-63
2023/08/05 03:58:19;;;;;;;14.60;9.47;;;;;;;;;;5008444;28;20458;-61
2023/08/05 04:00:45;;;;;;;15.20;10.40;;;;;;;;;;5008804;28;20267;-62
2023/08/05 04:03:10;;;;;;;14.38;9.75;;;;;;;;;;5008147;28;20091;-62
2023/08/05 04:05:35;;;;;;;22.98;10.02;;;;;;;;;;5008261;28;20029;-62
2023/08/05 04:08:01;;;;;;;12.80;9.77;;;;;;;;;;5008171;28;20104;-60
2023/08/05 04:10:26;;;;;;;14.67;9.10;;;;;;;;;;5044712;28;20033;-61
2023/08/05 04:12:51;;;;;;;18.40;8.88;;;;;;;;;;5045119;28;20859;-61
2023/08/05 04:15:18;;;;;;;12.57;10.07;;;;;;;;;;5045382;28;20095;-62
2023/08/05 04:17:44;;;;;;;13.95;9.55;;;;;;;;;;5031634;28;20086;-63
2023/08/05 04:20:11;;;;;;;11.43;8.15;;;;;;;;;;5044653;28;20068;-61
2023/08/05 04:22:38;;;;;;;16.27;8.43;;;;;;;;;;5029971;28;20047;-62
2023/08/05 04:25:03;;;;;;;10.45;8.63;;;;;;;;;;5024881;28;20059;-61
2023/08/05 04:27:28;;;;;;;11.15;8.25;;;;;;;;;;5024924;28;20024;-62
2023/08/05 04:29:54;;;;;;;15.37;9.70;;;;;;;;;;5024476;28;20444;-61
2023/08/05 04:32:20;;;;;;;14.73;8.50;;;;;;;;;;5025302;28;20281;-60
2023/08/05 04:34:45;;;;;;;10.13;8.10;;;;;;;;;;5024803;28;20402;-62
2023/08/05 04:37:18;;;;;;;13.23;8.30;;;;;;;;;;5025211;28;20071;-62
2023/08/05 04:39:43;;;;;;;8.57;6.78;;;;;;;;;;5025193;28;20056;-61
2023/08/05 04:42:09;;;;;;;8.57;7.55;;;;;;;;;;5009199;28;20117;-62
2023/08/05 04:44:34;;;;;;;9.00;7.45;;;;;;;;;;5005476;28;20033;-61
2023/08/05 04:46:59;;;;;;;9.90;7.17;;;;;;;;;;5005068;28;20056;-63
2023/08/05 04:49:25;;;;;;;12.10;8.13;;;;;;;;;;5005204;28;20777;-62
2023/08/05 04:51:50;;;;;;;11.93;7.63;;;;;;;;;;5007186;28;20266;-61
2023/08/05 04:54:15;;;;;;;10.93;7.70;;;;;;;;;;5007661;28;20057;-61
2023/08/05 04:56:41;;;;;;;9.73;7.32;;;;;;;;;;5008055;28;20022;-62
2023/08/05 04:59:06;;;;;;;10.35;6.50;;;;;;;;;;5054766;28;20057;-62
2023/08/05 05:01:32;;;;;;;9.30;7.83;;;;;;;;;;5007426;28;20022;-62
2023/08/05 05:03:57;;;;;;;9.38;7.28;;;;;;;;;;5007331;28;20022;-63
2023/08/05 05:06:23;;;;;;;8.98;7.10;;;;;;;;;;5006862;28;20033;-62
2023/08/05 05:08:49;;;;;;;8.43;6.55;;;;;;;;;;5007320;28;20022;-63
2023/08/05 05:11:14;;;;;;;8.85;6.88;;;;;;;;;;5007245;28;20075;-61
2023/08/05 05:13:39;;;;;;;8.00;7.15;;;;;;;;;;5007637;28;20281;-61
2023/08/05 05:16:05;;;;;;;10.97;7.03;;;;;;;;;;5007170;28;20029;-62
2023/08/05 05:18:30;;;;;;;10.77;6.70;;;;;;;;;;5037335;28;20374;-62
2023/08/05 05:20:55;;;;;;;7.63;6.83;;;;;;;;;;5006606;28;20065;-62
2023/08/05 05:23:20;;;;;;;8.37;6.80;;;;;;;;;;5006798;28;20568;-62
2023/08/05 05:25:46;;;;;;;9.33;7.63;;;;;;;;;;5005447;28;20259;-63
2023/08/05 05:28:11;;;;;;;10.43;6.53;;;;;;;;;;5006828;28;20026;-61
2023/08/05 05:30:36;;;;;;;9.93;6.00;;;;;;;;;;5007334;28;20029;-63
2023/08/05 05:33:02;;;;;;;6.95;5.93;;;;;;;;;;5006685;28;20022;-62
2023/08/05 05:35:30;;;;;;;7.00;5.70;;;;;;;;;;5006507;28;20462;-62
2023/08/05 05:37:55;;;;;;;12.00;6.00;;;;;;;;;;5020440;28;20130;-61
2023/08/05 05:40:20;;;;;;;8.20;6.00;;;;;;;;;;5005761;28;20030;-62
2023/08/05 05:42:48;;;;;;;7.00;5.90;;;;;;;;;;5006385;28;20014;-62
2023/08/05 05:45:13;;;;;;;7.50;5.72;;;;;;;;;;5007018;28;20586;-58
2023/08/05 05:47:38;;;;;;;5.85;5.15;;;;;;;;;;5020942;28;20146;-62
2023/08/05 05:50:04;;;;;;;7.67;5.63;;;;;;;;;;5025613;28;20544;-62
2023/08/05 05:52:29;;;;;;;6.90;5.40;;;;;;;;;;5025758;28;20243;-59
2023/08/05 05:54:54;;;;;;;8.18;5.57;;;;;;;;;;5026350;28;20449;-59
2023/08/05 05:57:22;;;;;;;6.22;5.40;;;;;;;;;;5025938;28;20025;-63
2023/08/05 05:59:47;;;;;;;6.55;4.80;;;;;;;;;;5025564;28;20064;-62
2023/08/05 06:02:12;;;;;;;8.55;5.43;;;;;;;;;;5025611;28;20052;-62
2023/08/05 06:04:39;;;;;;;6.40;5.15;;;;;;;;;;5024654;28;20389;-63
2023/08/05 06:07:04;;;;;;;7.95;5.43;;;;;;;;;;5022855;28;20112;-63
2023/08/05 06:09:31;;;;;;;9.65;5.82;;;;;;;;;;5025256;28;20116;-62
2023/08/05 06:11:56;;;;;;;7.30;5.50;;;;;;;;;;5025178;28;20022;-62
2023/08/05 06:14:21;;;;;;;7.10;5.35;;;;;;;;;;5025543;28;20036;-63
2023/08/05 06:16:47;;;;;;;9.27;6.60;;;;;;;;;;5025474;28;20070;-62
2023/08/05 06:19:12;;;;;;;7.57;5.97;;;;;;;;;;5025359;28;20046;-62
2023/08/05 06:21:37;;;;;;;10.07;5.78;;;;;;;;;;5024354;28;20389;-61
2023/08/05 06:24:03;;;;;;;14.43;5.83;;;;;;;;;;5025137;28;20021;-62
2023/08/05 06:26:29;;;;;;;7.13;4.88;;;;;;;;;;5025514;28;20025;-62
2023/08/05 06:28:54;;;;;;;8.80;5.45;;;;;;;;;;5040688;28;20552;-62
2023/08/05 06:31:19;;;;;;;9.48;5.55;;;;;;;;;;5024742;28;20037;-62
2023/08/05 06:33:45;;;;;;;9.03;5.23;;;;;;;;;;5025424;28;20025;-62
2023/08/05 06:36:10;;;;;;;8.27;5.72;;;;;;;;;;5025288;28;20238;-62
2023/08/05 06:38:36;;;;;;;9.97;5.80;;;;;;;;;;5010891;28;20032;-63
2023/08/05 06:41:01;;;;;;;9.90;5.88;;;;;;;;;;5005196;28;20485;-62
2023/08/05 06:43:27;;;;;;;9.10;6.05;;;;;;;;;;5005857;28;20477;-62
2023/08/05 06:45:52;;;;;;;7.18;5.43;;;;;;;;;;5005963;28;20153;-63
2023/08/05 06:48:17;;;;;;;7.45;5.70;;;;;;;;;;5005669;28;20117;-63
2023/08/05 06:50:43;;;;;;;10.70;5.80;;;;;;;;;;5005715;28;20538;-61
2023/08/05 06:53:08;;;;;;;9.88;6.13;;;;;;;;;;5008369;28;20239;-62
2023/08/05 06:55:33;;;;;;;12.63;6.77;;;;;;;;;;5010209;28;20526;-62
2023/08/05 06:57:58;;;;;;;8.63;7.37;;;;;;;;;;5009666;28;20029;-63
2023/08/05 07:00:24;;;;;;;17.43;7.63;;;;;;;;;;5009554;28;20623;-63
2023/08/05 07:02:49;;;;;;;8.33;7.30;;;;;;;;;;5009368;28;20029;-62
2023/08/05 07:05:14;;;;;;;15.77;8.50;;;;;;;;;;5009792;28;20447;-62
2023/08/05 07:07:40;;;;;;;11.52;8.23;;;;;;;;;;5009235;28;20097;-62
2023/08/05 07:10:07;;;;;;;15.38;8.90;;;;;;;;;;5009593;28;20480;-61
2023/08/05 07:12:34;;;;;;;13.73;8.43;;;;;;;;;;5022861;28;20033;-61
2023/08/05 07:14:59;;;;;;;11.75;8.43;;;;;;;;;;5028879;28;20021;-62
2023/08/05 07:17:25;;;;;;;11.80;8.33;;;;;;;;;;5028592;28;20059;-61
2023/08/05 07:19:50;;;;;;;11.38;9.10;;;;;;;;;;5028489;28;20065;-62
2023/08/05 07:22:16;;;;;;;13.82;9.32;;;;;;;;;;5028730;28;20444;-62
2023/08/05 07:24:41;;;;;;;12.27;8.80;;;;;;;;;;5028578;28;20064;-62
2023/08/05 07:27:06;;;;;;;16.57;9.60;;;;;;;;;;5023236;28;20420;-63
2023/08/05 07:29:32;;;;;;;11.55;8.75;;;;;;;;;;5008920;28;20022;-62
2023/08/05 07:31:57;;;;;;;40.15;10.40;;;;;;;;;;5020674;28;20116;-61
2023/08/05 07:34:23;;;;;;;12.70;9.53;;;;;;;;;;5027612;28;20025;-63
2023/08/05 07:36:49;;;;;;;13.48;10.07;;;;;;;;;;5027589;28;20325;-62
2023/08/05 07:39:15;;;;;;;14.90;10.40;;;;;;;;;;5028515;28;20021;-62
2023/08/05 07:41:40;;;;;;;12.55;10.05;;;;;;;;;;5028760;28;20033;-61
2023/08/05 07:44:07;;;;;;;14.10;10.40;;;;;;;;;;5028181;28;20112;-62
2023/08/05 07:46:36;;;;;;;11.95;10.70;;;;;;;;;;5028651;28;20281;-62
2023/08/05 07:49:02;;;;;;;12.25;10.98;;;;;;;;;;5027888;28;20018;-61
2023/08/05 07:51:29;;;;;;;12.20;9.43;;;;;;;;;;5021266;28;20117;-62
2023/08/05 07:53:55;;;;;;;23.23;10.95;;;;;;;;;;5028091;28;20096;-62
2023/08/05 07:56:20;;;;;;;13.85;11.60;;;;;;;;;;5025860;28;21657;-63
2023/08/05 07:58:46;;;;;;;16.47;11.83;;;;;;;;;;5025628;28;20029;-62
2023/08/05 08:01:21;;;;;;;17.38;11.90;;;;;;;;;;5027661;28;20470;-62
2023/08/05 08:03:48;;;;;;;18.73;11.48;;;;;;;;;;5027228;28;20025;-62
2023/08/05 08:06:15;;;;;;;18.05;12.35;;;;;;;;;;5027237;28;20598;-61
2023/08/05 08:08:41;;;;;;;16.20;12.10;;;;;;;;;;5027070;28;20381;-63
2023/08/05 08:11:06;;;;;;;19.00;12.90;;;;;;;;;;5027065;28;20037;-62
2023/08/05 08:13:32;;;;;;;19.00;11.90;;;;;;;;;;5028203;28;20028;-63
2023/08/05 08:15:57;;;;;;;13.43;11.73;;;;;;;;;;5022327;28;20353;-62
2023/08/05 08:18:22;;;;;;;15.82;11.57;;;;;;;;;;5027190;28;20054;-62
2023/08/05 08:20:48;;;;;;;16.87;12.00;;;;;;;;;;5042764;28;20036;-63
2023/08/05 08:23:14;;;;;;;14.13;12.13;;;;;;;;;;5018056;28;20276;-62
2023/08/05 08:25:39;;;;;;;22.33;12.77;;;;;;;;;;5011653;28;20022;-62
2023/08/05 08:28:04;;;;;;;14.95;12.20;;;;;;;;;;5025630;28;20270;-62
2023/08/05 08:30:30;;;;;;;16.57;11.80;;;;;;;;;;5026793;28;20079;-62
2023/08/05 08:32:55;;;;;;;20.30;12.10;;;;;;;;;;5011434;28;20088;-62
2023/08/05 08:35:20;;;;;;;13.80;11.57;;;;;;;;;;5021927;28;20346;-61
2023/08/05 08:37:45;;;;;;;15.15;10.73;;;;;;;;;;5024693;28;20392;-62
2023/08/05 08:40:11;;;;;;;12.87;11.27;;;;;;;;;;5027250;28;20052;-62
2023/08/05 08:42:36;;;;;;;15.10;11.10;;;;;;;;;;5026704;28;20833;-61
2023/08/05 08:45:01;;;;;;;11.60;10.15;;;;;;;;;;5026365;28;20088;-61
2023/08/05 08:47:27;;;;;;;14.70;10.43;;;;;;;;;;5027980;28;20033;-62
2023/08/05 08:49:52;;;;;;;13.65;9.50;;;;;;;;;;5026737;28;20104;-62
2023/08/05 08:52:18;;;;;;;12.90;9.48;;;;;;;;;;5014686;28;20104;-63
2023/08/05 08:54:44;;;;;;;12.80;8.63;;;;;;;;;;5007774;28;20381;-62
2023/08/05 08:57:11;;;;;;;12.10;9.77;;;;;;;;;;5018529;28;20026;-62
2023/08/05 08:59:36;;;;;;;11.82;8.32;;;;;;;;;;5026714;28;20124;-63
2023/08/05 09:02:02;;;;;;;10.63;8.27;;;;;;;;;;5017472;28;20105;-62
2023/08/05 09:04:29;;;;;;;14.55;8.95;;;;;;;;;;5007178;28;20022;-62
2023/08/05 09:06:55;;;;;;;10.93;8.48;;;;;;;;;;5015598;28;20531;-61
2023/08/05 09:09:20;;;;;;;12.63;9.13;;;;;;;;;;5026543;28;20037;-62
2023/08/05 09:11:46;;;;;;;8.75;7.70;;;;;;;;;;5029147;28;20048;-62
2023/08/05 09:14:14;;;;;;;11.27;8.20;;;;;;;;;;5007748;28;20026;-63
2023/08/05 09:16:56;;;;;;;12.93;8.40;;;;;;;;;;5015568;28;20025;-61
2023/08/05 09:19:25;;;;;;;12.70;8.35;;;;;;;;;;5022894;28;20108;-61
2023/08/05 09:21:51;;;;;;;9.70;7.68;;;;;;;;;;5023991;28;20037;-63
2023/08/05 09:24:20;;;;;;;8.73;6.72;;;;;;;;;;5035245;28;20542;-62
2023/08/05 09:26:45;;;;;;;10.60;7.60;;;;;;;;;;5024701;28;20095;-63
2023/08/05 09:29:19;;;;;;;9.90;8.30;;;;;;;;;;5023412;28;20064;-63
2023/08/05 09:31:53;;;;;;;10.10;8.43;;;;;;;;;;5025829;28;20451;-63
2023/08/05 09:34:18;;;;;;;11.40;8.23;;;;;;;;;;5041372;28;20047;-62
2023/08/05 09:36:45;;;;;;;9.73;7.70;;;;;;;;;;5035957;28;20025;-62
2023/08/05 09:39:13;;;;;;;7.95;7.20;;;;;;;;;;5041127;28;20040;-62
2023/08/05 09:41:39;;;;;;;10.63;8.15;;;;;;;;;;5035914;28;20315;-61
2023/08/05 09:44:08;;;;;;;10.00;7.38;;;;;;;;;;5023302;28;20453;-62
2023/08/05 09:46:44;;;;;;;13.02;7.55;;;;;;;;;;5032936;28;20025;-62
2023/08/05 09:49:14;;;;;;;8.57;7.22;;;;;;;;;;5026958;28;20067;-63
2023/08/05 09:51:45;;;;;;;13.55;7.38;;;;;;;;;;5019956;28;20018;-61
2023/08/05 09:54:15;;;;;;;9.10;7.22;;;;;;;;;;5025853;28;20112;-61
2023/08/05 09:56:40;;;;;;;7.45;6.65;;;;;;;;;;5019722;28;20026;-62
2023/08/05 09:59:06;;;;;;;8.52;7.10;;;;;;;;;;5005989;28;20088;-63
2023/08/05 10:01:32;;;;;;;8.10;6.78;;;;;;;;;;5022869;28;20025;-62
2023/08/05 10:03:58;;;;;;;10.52;7.10;;;;;;;;;;5025490;28;20075;-62
2023/08/05 10:06:24;;;;;;;8.05;7.25;;;;;;;;;;5020802;28;20465;-63
2023/08/05 10:08:49;;;;;;;14.00;7.93;;;;;;;;;;5006281;28;20477;-62
2023/08/05 10:11:15;;;;;;;9.57;6.05;;;;;;;;;;5008640;28;20072;-62
2023/08/05 10:13:42;;;;;;;8.20;7.38;;;;;;;;;;5020938;28;20113;-61
2023/08/05 10:16:08;;;;;;;10.18;6.85;;;;;;;;;;5018877;28;20055;-62
2023/08/05 10:18:34;;;;;;;10.48;6.72;;;;;;;;;;5023412;28;20115;-62
2023/08/05 10:21:04;;;;;;;8.40;7.38;;;;;;;;;;5022980;28;20032;-62
2023/08/05 10:23:32;;;;;;;7.57;6.13;;;;;;;;;;5024062;28;20056;-62
2023/08/05 10:25:58;;;;;;;9.18;6.78;;;;;;;;;;5018472;28;20032;-62
2023/08/05 10:28:24;;;;;;;10.63;7.38;;;;;;;;;;5016703;28;20045;-63
2023/08/05 10:30:49;;;;;;;9.20;6.53;;;;;;;;;;5025633;28;20021;-62
2023/08/05 10:33:15;;;;;;;9.80;6.50;;;;;;;;;;5019010;28;20472;-62
2023/08/05 10:35:42;;;;;;;9.55;7.40;;;;;;;;;;5024736;28;20025;-63
2023/08/05 10:38:09;;;;;;;11.30;7.40;;;;;;;;;;5008088;28;20289;-60
2023/08/05 10:40:45;;;;;;;11.25;7.25;;;;;;;;;;5007539;28;20124;-59
2023/08/05 10:43:10;;;;;;;9.98;7.65;;;;;;;;;;5023534;28;20681;-62
2023/08/05 10:45:42;;;;;;;9.57;8.00;;;;;;;;;;5024226;28;20313;-61
2023/08/05 10:48:13;;;;;;;10.68;7.25;;;;;;;;;;5012704;28;20040;-60
2023/08/05 10:50:39;;;;;;;13.82;7.88;;;;;;;;;;5004351;28;20018;-60
2023/08/05 10:53:06;;;;;;;9.32;7.45;;;;;;;;;;5004693;28;20041;-59
2023/08/05 10:55:43;;;;;;;10.98;7.72;;;;;;;;;;5023599;28;20113;-61
2023/08/05 10:58:08;;;;;;;13.77;8.25;;;;;;;;;;5021664;28;20029;-61
2023/08/05 11:00:37;;;;;;;11.97;7.80;;;;;;;;;;5022421;28;20090;-61
2023/08/05 11:03:21;;;;;;;12.32;7.90;;;;;;;;;;5023977;28;20025;-61
2023/08/05 11:05:47;;;;;;;9.65;7.93;;;;;;;;;;5017362;28;20034;-60
2023/08/05 11:08:15;;;;;;;16.77;7.72;;;;;;;;;;5023120;28;20034;-60
2023/08/05 11:10:41;;;;;;;;;;;;;;;;;;5021796;28;20029;-62
2023/08/05 11:13:06;;;;;;;11.45;7.40;;;;;;;;;;5014250;28;19916;-61
2023/08/05 11:15:31;;;;;;;8.75;7.03;;;;;;;;;;5005169;28;20061;-60
2023/08/05 11:17:57;;;;;;;10.33;7.77;;;;;;;;;;5005636;28;20090;-61
2023/08/05 11:20:31;;;;;;;14.43;7.37;;;;;;;;;;5004869;28;20080;-61
2023/08/05 11:22:57;;;;;;;11.60;8.00;;;;;;;;;;5041203;28;20312;-61
2023/08/05 11:25:22;;;;;;;9.70;7.70;;;;;;;;;;5023532;28;20026;-61
2023/08/05 11:27:53;;;;;;;13.77;7.13;;;;;;;;;;5018610;28;20017;-61
2023/08/05 11:30:18;;;;;;;10.60;7.75;;;;;;;;;;5023028;28;20412;-62
2023/08/05 11:32:55;;;;;;;10.65;8.15;;;;;;;;;;5023452;28;20030;-61
2023/08/05 11:35:20;;;;;;;9.02;7.30;;;;;;;;;;5024243;28;20581;-60
2023/08/05 11:37:46;;;;;;;8.57;6.25;;;;;;;;;;5024550;28;20121;-61
2023/08/05 11:40:11;;;;;;;16.97;6.97;;;;;;;;;;5058085;28;20382;-62
2023/08/05 11:42:39;;;;;;;9.75;7.25;;;;;;;;;;5027222;28;20832;-61
2023/08/05 11:45:04;;;;;;;11.35;7.65;;;;;;;;;;5027922;28;20105;-61
2023/08/05 11:47:30;;;;;;;10.55;7.10;;;;;;;;;;5024404;28;20528;-62
2023/08/05 11:49:55;;;;;;;10.23;6.85;;;;;;;;;;5027852;28;20099;-61
2023/08/05 11:52:20;;;;;;;12.30;9.17;;;;;;;;;;5015886;28;20048;-62
2023/08/05 11:54:55;;;;;;;8.98;8.02;;;;;;;;;;5021698;28;20269;-62
2023/08/05 11:57:21;;;;;;;13.00;7.35;;;;;;;;;;5027352;28;20028;-61
2023/08/05 11:59:46;;;;;;;14.67;6.97;;;;;;;;;;5028020;28;20381;-60
2023/08/05 12:02:12;;;;;;;10.23;6.93;;;;;;;;;;5021624;28;20026;-61
2023/08/05 12:04:56;;;;;;;8.18;6.53;;;;;;;;;;5007484;28;20465;-62
2023/08/05 12:07:22;;;;;;;12.80;7.22;;;;;;;;;;5008663;28;20754;-60
2023/08/05 12:10:07;;;;;;;10.43;6.93;;;;;;;;;;5009162;28;20174;-61
2023/08/05 12:12:33;;;;;;;9.75;7.57;;;;;;;;;;5019806;28;20559;-61
2023/08/05 12:15:11;;;;;;;12.52;7.45;;;;;;;;;;5007664;28;20033;-61
2023/08/05 12:17:37;;;;;;;6.90;6.07;;;;;;;;;;5023201;28;20392;-62
2023/08/05 12:20:04;;;;;;;8.15;7.32;;;;;;;;;;5026954;28;20293;-61
2023/08/05 12:22:29;;;;;;;11.30;6.93;;;;;;;;;;5026768;28;20048;-61
2023/08/05 12:24:54;;;;;;;8.47;7.07;;;;;;;;;;5027578;28;20053;-59
2023/08/05 12:27:20;;;;;;;8.20;6.73;;;;;;;;;;5015148;28;20088;-62
2023/08/05 12:29:45;;;;;;;12.70;7.47;;;;;;;;;;5020322;28;20484;-62
2023/08/05 12:32:10;;;;;;;11.80;7.77;;;;;;;;;;5031185;28;20034;-59
2023/08/05 12:34:35;;;;;;;12.33;7.97;;;;;;;;;;5019990;28;20018;-61
2023/08/05 12:37:01;;;;;;;10.63;8.27;;;;;;;;;;5026775;28;20339;-61
2023/08/05 12:39:26;;;;;;;11.17;7.73;;;;;;;;;;5042383;28;20518;-62
2023/08/05 12:41:53;;;;;;;14.23;9.03;;;;;;;;;;5048776;28;20038;-61
2023/08/05 12:44:18;;;;;;;14.10;8.15;;;;;;;;;;5007225;28;20025;-61
2023/08/05 12:46:44;;;;;;;8.43;7.47;;;;;;;;;;5023072;28;20025;-62
2023/08/05 12:49:09;;;;;;;10.80;7.57;;;;;;;;;;5006852;28;20018;-61
2023/08/05 12:51:34;;;;;;;10.77;7.10;;;;;;;;;;5008282;28;20385;-62
2023/08/05 12:54:00;;;;;;;14.77;7.83;;;;;;;;;;5018363;28;20030;-61
2023/08/05 12:56:25;;;;;;;12.93;8.67;;;;;;;;;;5021311;28;20446;-61
2023/08/05 12:58:50;;;;;;;10.97;7.10;;;;;;;;;;5037677;28;20695;-60
2023/08/05 13:01:15;;;;;;;9.40;8.10;;;;;;;;;;5023393;28;20040;-61
2023/08/05 13:03:41;;;;;;;12.43;9.03;;;;;;;;;;5007151;28;20251;-62
2023/08/05 13:06:06;;;;;;;9.20;7.80;;;;;;;;;;5009261;28;20352;-61
2023/08/05 13:08:32;;;;;;;10.25;8.23;;;;;;;;;;5023168;28;20029;-61
2023/08/05 13:10:57;;;;;;;9.27;8.03;;;;;;;;;;5026150;28;20022;-62
2023/08/05 13:13:22;;;;;;;11.90;8.67;;;;;;;;;;5011071;28;20025;-60
2023/08/05 13:15:47;;;;;;;12.30;8.40;;;;;;;;;;5020382;28;20686;-61
2023/08/05 13:18:13;;;;;;;12.25;9.02;;;;;;;;;;5026943;28;20064;-60
2023/08/05 13:20:38;;;;;;;22.97;9.10;;;;;;;;;;5026656;28;20104;-62
2023/08/05 13:23:03;;;;;;;14.97;9.17;;;;;;;;;;5022677;28;20526;-60
2023/08/05 13:25:28;;;;;;;13.43;8.90;;;;;;;;;;5026307;28;20251;-62
2023/08/05 13:27:54;;;;;;;12.70;9.20;;;;;;;;;;5026341;28;20389;-62
2023/08/05 13:30:20;;;;;;;10.73;8.40;;;;;;;;;;5026126;28;20068;-61
2023/08/05 13:32:46;;;;;;;16.65;8.85;;;;;;;;;;5025339;28;20033;-61
2023/08/05 13:35:11;;;;;;;15.25;10.25;;;;;;;;;;5025337;28;20034;-62
2023/08/05 13:37:36;;;;;;;19.37;10.00;;;;;;;;;;5012193;28;20120;-59
2023/08/05 13:40:02;;;;;;;15.73;10.23;;;;;;;;;;5023809;28;20278;-62
2023/08/05 13:42:27;;;;;;;16.35;12.85;;;;;;;;;;5013145;28;20037;-61
2023/08/05 13:44:52;;;;;;;13.43;9.23;;;;;;;;;;5005947;28;20048;-62
2023/08/05 13:47:18;;;;;;;15.53;10.23;;;;;;;;;;5006792;28;20366;-61
2023/08/05 13:49:43;;;;;;;15.73;9.60;;;;;;;;;;5013283;28;20473;-62
2023/08/05 13:52:09;;;;;;;13.00;10.25;;;;;;;;;;5023952;28;20064;-61
2023/08/05 13:54:34;;;;;;;17.35;10.75;;;;;;;;;;5026093;28;20021;-61
2023/08/05 13:57:01;;;;;;;15.97;10.57;;;;;;;;;;5024631;28;20462;-61
2023/08/05 13:59:26;;;;;;;14.68;10.70;;;;;;;;;;5025464;28;20317;-62
2023/08/05 14:01:51;;;;;;;23.00;10.35;;;;;;;;;;5015912;28;20156;-61
2023/08/05 14:04:17;;;;;;;15.82;10.93;;;;;;;;;;5006215;28;20551;-61
2023/08/05 14:06:42;;;;;;;12.55;9.80;;;;;;;;;;5019845;28;20100;-61
2023/08/05 14:09:08;;;;;;;12.80;10.10;;;;;;;;;;5025610;28;20029;-61
2023/08/05 14:11:36;;;;;;;14.87;10.73;;;;;;;;;;5024444;28;20056;-62
2023/08/05 14:14:02;;;;;;;14.40;10.18;;;;;;;;;;5025531;28;20729;-61
2023/08/05 14:16:27;;;;;;;20.60;11.40;;;;;;;;;;5020730;28;20026;-61
2023/08/05 14:18:52;;;;;;;14.50;11.03;;;;;;;;;;5005430;28;20128;-60
2023/08/05 14:21:19;;;;;;;15.30;11.32;;;;;;;;;;5009817;28;20046;-62
2023/08/05 14:23:44;;;;;;;15.63;11.50;;;;;;;;;;5028029;28;20405;-61
2023/08/05 14:26:10;;;;;;;13.18;11.05;;;;;;;;;;5008935;28;20281;-62